Pagrindinis puslapis
METAR-TAF:

METAR-TAF

Oro uostai :

Bukareštas-Băneasa, Rumunija

platuma: 44-30N, ilguma: 026-08E, Aukštis: 90 m

Dabartinis oras

Ataskaita buvo paskelbta 28 minutes, ne 06:30 UTC
Vėjas 3 kt iš Rytų/Šiaurės Rytų
Temperatūra 17°C
Drėgmė 63%
Slėgis 1022 hPa
Matomumas 10 km arba daugiau
nėra debesų žemiau 1500 m ir nėra kamuolinių lietaus debesų

METAR: LRBS 220630Z 07003KT CAVOK 17/10 Q1022 NOSIG

Laikas: 09:58 (06:58 UTC)

Prognozė

Ataskaita buvo paskelbta 1 valandą ir 58 minutes, ne 05:00 UTC
Prognozė galioja nuo 22 metu 06 UTC su 23 metu 06 UTC
Vėjas 3 kt nuo kintamojo kryptimis
Matomumas 10 km arba daugiau
nėra debesų žemiau 1500 m ir nėra kamuolinių lietaus debesų
Laikinai
nuo 22 metu 10 UTC su 22 metu 16 UTC
Vėjas 12 kt iš Rytų

TAF: LRBS 220500Z 2206/2306 VRB03KT CAVOK TEMPO 2210/2216 09012KT

Orai ataskaitas ir orų prognozės (METAR, TAF).

turimą stotys yra geltonos ir raudonos taškus žemėlapyje.

Perkelti pele per norėdami pamatyti stoties vardą.

Tada spustelėkite, norėdami matyti oro stebėjimo ir prognozės.

Norėdami pakeisti žemėlapį: spustelėkite ant žalios mygtukų su juodo kryžiaus žemyn,; žalią mygtuką su brūkšneliu, jei norite nutolinti; arba žalių rodyklių gretimoms žemėlapius.


METAR-TAF: